Koryo Maru 81 — JFFQ — position and weather

sailwx.info

Track history (hours):
 
Tides and Currents Weather Stations Pressure Air Temp Water Temp Dewpoint Dewpoint Depression Visibility Wind Speed Wind Dir Waves Ship Positions

Koryo Maru 81

Last reported at 2017-Sep-25 00:11 UTC. Time now 2017-Oct-17 04:30 UTC.
Position N 31°12' W 015°18'.
Warning: this ship's position is 22 days out of date.

Length 50 m; draft 4 m.

Type: Fishing. MMSI: 432045000.

Date/timePositionNaut miles runAvg speedWind from/ knotsBaromVisibWave heightAir tempDewpointWater temp
2017-Sep-25 00:11N 31°12' W 015°18'412.0
2017-Sep-24 23:53N 31°08' W 015°18'13911.8
2017-Sep-24 12:06N 28°49' W 015°20'411.9
2017-Sep-24 11:45N 28°45' W 015°21'411.8
2017-Sep-24 11:23N 28°41' W 015°21'511.9
2017-Sep-24 10:59N 28°36' W 015°21'611.5
2017-Sep-24 10:30N 28°30' W 015°21'611.5
2017-Sep-24 10:00N 28°25' W 015°21'611.6
2017-Sep-24 09:30N 28°19' W 015°21'611.4
2017-Sep-24 09:00N 28°13' W 015°21'5 9.5
2017-Sep-24 08:30N 28°08' W 015°22'2 4.5
2017-Sep-24 08:00N 28°09' W 015°24'0 0.0
2017-Sep-24 07:30N 28°09' W 015°24'0 0.0
2017-Sep-24 07:00N 28°09' W 015°24'0 0.0
2017-Sep-24 06:30N 28°09' W 015°24'0 0.0
2017-Sep-24 06:00N 28°09' W 015°24'0 0.0
2017-Sep-24 05:30N 28°09' W 015°24'0 0.0
2017-Sep-24 05:00N 28°09' W 015°24'0 0.0
2017-Sep-24 04:30N 28°09' W 015°24'0 0.0
2017-Sep-24 04:00N 28°09' W 015°24'0 0.0
2017-Sep-24 03:30N 28°09' W 015°24'0 0.0
2017-Sep-24 03:00N 28°09' W 015°24'0 0.0
2017-Sep-24 02:30N 28°09' W 015°24'0 0.0
2017-Sep-24 02:00N 28°09' W 015°24'0 0.0
2017-Sep-24 01:30N 28°09' W 015°24'0 0.0
2017-Sep-24 01:00N 28°09' W 015°24'0 0.0
2017-Sep-24 00:30N 28°09' W 015°24'0 0.0
2017-Sep-24 00:00N 28°09' W 015°24'0 0.0
2017-Sep-23 23:30N 28°09' W 015°24'0 0.0
2017-Sep-23 23:00N 28°09' W 015°24'0 0.0
2017-Sep-23 22:30N 28°09' W 015°24'0 0.0
2017-Sep-23 22:00N 28°09' W 015°24'0 0.0
2017-Sep-23 21:30N 28°09' W 015°24'0 0.0
2017-Sep-23 21:00N 28°09' W 015°24'0 0.0
2017-Sep-23 20:30N 28°09' W 015°24'0 0.0
2017-Sep-23 20:00N 28°09' W 015°24'1 0.0
2017-Sep-22 02:00N 28°09' W 015°25'0 0.0
2017-Sep-22 01:30N 28°09' W 015°25'0 0.0
2017-Sep-22 01:00N 28°09' W 015°25'0 0.0
2017-Sep-22 00:30N 28°09' W 015°25'0 0.0
2017-Sep-22 00:00N 28°09' W 015°25'0 0.0
2017-Sep-21 23:30N 28°09' W 015°25'0 0.0
2017-Sep-21 23:00N 28°09' W 015°25'0 0.0
2017-Sep-21 22:30N 28°09' W 015°25'0 0.0
2017-Sep-21 22:00N 28°09' W 015°25'0 0.0
2017-Sep-21 21:30N 28°09' W 015°25'0 0.0
2017-Sep-21 21:00N 28°09' W 015°25'0 0.0
2017-Sep-21 20:30N 28°09' W 015°25'0 0.0
2017-Sep-21 20:00N 28°09' W 015°25'0 0.0
2017-Sep-21 19:30N 28°09' W 015°25'0 0.0
2017-Sep-21 19:00N 28°09' W 015°25'0 0.0
2017-Sep-21 18:30N 28°09' W 015°25'0 0.0
2017-Sep-21 18:00N 28°09' W 015°25'0 0.0
2017-Sep-21 17:30N 28°09' W 015°25'0 0.8
2017-Sep-21 17:00N 28°08' W 015°25'3 5.0
2017-Sep-21 16:30N 28°07' W 015°23'611.6
2017-Sep-21 16:00N 28°04' W 015°17'510.0
2017-Sep-21 15:30N 27°59' W 015°16'511.0
2017-Sep-21 15:00N 27°53' W 015°16'611.3
2017-Sep-21 14:30N 27°48' W 015°17'  
Track history (hours):
 
Tides and Currents Weather Stations Pressure Air Temp Water Temp Dewpoint Dewpoint Depression Visibility Wind Speed Wind Dir Waves Ship Positions

Koryo Maru 81

Last reported at 2017-Sep-25 00:11 UTC. Time now 2017-Oct-17 04:30 UTC.
Position N 31°12' W 015°18'.
Warning: this ship's position is 22 days out of date.

Length 50 m; draft 4 m.

Type: Fishing. MMSI: 432045000.

Date/timePositionNaut miles runAvg speedWind from/ knotsBaromVisibWave heightAir tempDewpointWater temp
2017-Sep-25 00:11N 31°12' W 015°18'412.0
2017-Sep-24 23:53N 31°08' W 015°18'13911.8
2017-Sep-24 12:06N 28°49' W 015°20'411.9
2017-Sep-24 11:45N 28°45' W 015°21'411.8
2017-Sep-24 11:23N 28°41' W 015°21'511.9
2017-Sep-24 10:59N 28°36' W 015°21'611.5
2017-Sep-24 10:30N 28°30' W 015°21'611.5
2017-Sep-24 10:00N 28°25' W 015°21'611.6
2017-Sep-24 09:30N 28°19' W 015°21'611.4
2017-Sep-24 09:00N 28°13' W 015°21'5 9.5
2017-Sep-24 08:30N 28°08' W 015°22'2 4.5
2017-Sep-24 08:00N 28°09' W 015°24'0 0.0
2017-Sep-24 07:30N 28°09' W 015°24'0 0.0
2017-Sep-24 07:00N 28°09' W 015°24'0 0.0
2017-Sep-24 06:30N 28°09' W 015°24'0 0.0
2017-Sep-24 06:00N 28°09' W 015°24'0 0.0
2017-Sep-24 05:30N 28°09' W 015°24'0 0.0
2017-Sep-24 05:00N 28°09' W 015°24'0 0.0
2017-Sep-24 04:30N 28°09' W 015°24'0 0.0
2017-Sep-24 04:00N 28°09' W 015°24'0 0.0
2017-Sep-24 03:30N 28°09' W 015°24'0 0.0
2017-Sep-24 03:00N 28°09' W 015°24'0 0.0
2017-Sep-24 02:30N 28°09' W 015°24'0 0.0
2017-Sep-24 02:00N 28°09' W 015°24'0 0.0
2017-Sep-24 01:30N 28°09' W 015°24'0 0.0
2017-Sep-24 01:00N 28°09' W 015°24'0 0.0
2017-Sep-24 00:30N 28°09' W 015°24'0 0.0
2017-Sep-24 00:00N 28°09' W 015°24'0 0.0
2017-Sep-23 23:30N 28°09' W 015°24'0 0.0
2017-Sep-23 23:00N 28°09' W 015°24'0 0.0
2017-Sep-23 22:30N 28°09' W 015°24'0 0.0
2017-Sep-23 22:00N 28°09' W 015°24'0 0.0
2017-Sep-23 21:30N 28°09' W 015°24'0 0.0
2017-Sep-23 21:00N 28°09' W 015°24'0 0.0
2017-Sep-23 20:30N 28°09' W 015°24'0 0.0
2017-Sep-23 20:00N 28°09' W 015°24'1 0.0
2017-Sep-22 02:00N 28°09' W 015°25'0 0.0
2017-Sep-22 01:30N 28°09' W 015°25'0 0.0
2017-Sep-22 01:00N 28°09' W 015°25'0 0.0
2017-Sep-22 00:30N 28°09' W 015°25'0 0.0
2017-Sep-22 00:00N 28°09' W 015°25'0 0.0
2017-Sep-21 23:30N 28°09' W 015°25'0 0.0
2017-Sep-21 23:00N 28°09' W 015°25'0 0.0
2017-Sep-21 22:30N 28°09' W 015°25'0 0.0
2017-Sep-21 22:00N 28°09' W 015°25'0 0.0
2017-Sep-21 21:30N 28°09' W 015°25'0 0.0
2017-Sep-21 21:00N 28°09' W 015°25'0 0.0
2017-Sep-21 20:30N 28°09' W 015°25'0 0.0
2017-Sep-21 20:00N 28°09' W 015°25'0 0.0
2017-Sep-21 19:30N 28°09' W 015°25'0 0.0
2017-Sep-21 19:00N 28°09' W 015°25'0 0.0
2017-Sep-21 18:30N 28°09' W 015°25'0 0.0
2017-Sep-21 18:00N 28°09' W 015°25'0 0.0
2017-Sep-21 17:30N 28°09' W 015°25'0 0.8
2017-Sep-21 17:00N 28°08' W 015°25'3 5.0
2017-Sep-21 16:30N 28°07' W 015°23'611.6
2017-Sep-21 16:00N 28°04' W 015°17'510.0
2017-Sep-21 15:30N 27°59' W 015°16'511.0
2017-Sep-21 15:00N 27°53' W 015°16'611.3
2017-Sep-21 14:30N 27°48' W 015°17'  

Dump ship's entire track history